sensor_id;sensor_type;location;lat;lon;timestamp;P1;durP1;ratioP1;P2;durP2;ratioP2
77591;SDS011;66891;46.884;17.436;2023-03-01T00:01:37;26.75;;;10.18;;
77591;SDS011;66891;46.884;17.436;2023-03-01T00:04:05;24.97;;;8.77;;
77591;SDS011;66891;46.884;17.436;2023-03-01T00:06:33;25.48;;;9.52;;
77591;SDS011;66891;46.884;17.436;2023-03-01T00:09:00;22.52;;;8.80;;
77591;SDS011;66891;46.884;17.436;2023-03-01T00:11:27;23.25;;;8.90;;
77591;SDS011;66891;46.884;17.436;2023-03-01T00:13:57;20.83;;;8.55;;
77591;SDS011;66891;46.884;17.436;2023-03-01T00:16:24;21.47;;;8.63;;
77591;SDS011;66891;46.884;17.436;2023-03-01T00:18:53;22.85;;;9.10;;
77591;SDS011;66891;46.884;17.436;2023-03-01T00:21:20;20.60;;;8.63;;
77591;SDS011;66891;46.884;17.436;2023-03-01T00:23:49;23.75;;;8.68;;
77591;SDS011;66891;46.884;17.436;2023-03-01T00:26:17;19.13;;;8.32;;
77591;SDS011;66891;46.884;17.436;2023-03-01T00:28:44;21.27;;;8.20;;
77591;SDS011;66891;46.884;17.436;2023-03-01T00:31:13;18.98;;;7.60;;
77591;SDS011;66891;46.884;17.436;2023-03-01T00:33:40;18.77;;;8.15;;
77591;SDS011;66891;46.884;17.436;2023-03-01T00:36:08;20.70;;;8.35;;
77591;SDS011;66891;46.884;17.436;2023-03-01T00:38:35;19.88;;;8.32;;
77591;SDS011;66891;46.884;17.436;2023-03-01T00:41:05;20.48;;;8.45;;
77591;SDS011;66891;46.884;17.436;2023-03-01T00:43:32;21.75;;;9.20;;
77591;SDS011;66891;46.884;17.436;2023-03-01T00:46:03;20.58;;;8.35;;
77591;SDS011;66891;46.884;17.436;2023-03-01T00:48:31;20.90;;;8.00;;
77591;SDS011;66891;46.884;17.436;2023-03-01T00:51:03;18.25;;;7.43;;
77591;SDS011;66891;46.884;17.436;2023-03-01T00:53:30;18.80;;;7.90;;
77591;SDS011;66891;46.884;17.436;2023-03-01T00:55:58;18.75;;;8.13;;
77591;SDS011;66891;46.884;17.436;2023-03-01T00:58:26;20.40;;;9.02;;
77591;SDS011;66891;46.884;17.436;2023-03-01T01:00:53;19.70;;;8.35;;
77591;SDS011;66891;46.884;17.436;2023-03-01T01:03:21;20.10;;;8.05;;
77591;SDS011;66891;46.884;17.436;2023-03-01T01:05:48;20.83;;;7.97;;
77591;SDS011;66891;46.884;17.436;2023-03-01T01:08:15;19.42;;;7.53;;
77591;SDS011;66891;46.884;17.436;2023-03-01T01:10:43;20.77;;;8.07;;
77591;SDS011;66891;46.884;17.436;2023-03-01T01:13:10;20.15;;;8.27;;
77591;SDS011;66891;46.884;17.436;2023-03-01T01:15:38;20.30;;;8.40;;
77591;SDS011;66891;46.884;17.436;2023-03-01T01:18:06;20.17;;;7.82;;
77591;SDS011;66891;46.884;17.436;2023-03-01T01:20:34;19.55;;;7.35;;
77591;SDS011;66891;46.884;17.436;2023-03-01T01:23:01;20.33;;;8.07;;
77591;SDS011;66891;46.884;17.436;2023-03-01T01:25:29;18.50;;;7.90;;
77591;SDS011;66891;46.884;17.436;2023-03-01T01:27:56;19.92;;;8.23;;
77591;SDS011;66891;46.884;17.436;2023-03-01T01:30:24;19.08;;;8.38;;
77591;SDS011;66891;46.884;17.436;2023-03-01T01:32:52;20.75;;;8.15;;
77591;SDS011;66891;46.884;17.436;2023-03-01T01:35:19;22.00;;;8.10;;
77591;SDS011;66891;46.884;17.436;2023-03-01T01:37:46;16.67;;;7.40;;
77591;SDS011;66891;46.884;17.436;2023-03-01T01:40:13;21.80;;;8.15;;
77591;SDS011;66891;46.884;17.436;2023-03-01T01:42:40;19.60;;;8.13;;
77591;SDS011;66891;46.884;17.436;2023-03-01T01:47:55;17.95;;;8.00;;
77591;SDS011;66891;46.884;17.436;2023-03-01T01:50:24;18.45;;;7.45;;
77591;SDS011;66891;46.884;17.436;2023-03-01T01:52:52;20.65;;;7.90;;
77591;SDS011;66891;46.884;17.436;2023-03-01T01:55:20;18.03;;;7.20;;
77591;SDS011;66891;46.884;17.436;2023-03-01T01:57:48;18.60;;;7.20;;
77591;SDS011;66891;46.884;17.436;2023-03-01T02:00:18;16.55;;;6.95;;
77591;SDS011;66891;46.884;17.436;2023-03-01T02:02:46;20.40;;;8.25;;
77591;SDS011;66891;46.884;17.436;2023-03-01T02:05:16;20.00;;;8.02;;
77591;SDS011;66891;46.884;17.436;2023-03-01T02:07:46;20.63;;;7.93;;
77591;SDS011;66891;46.884;17.436;2023-03-01T02:10:14;18.95;;;7.65;;
77591;SDS011;66891;46.884;17.436;2023-03-01T02:12:42;21.35;;;8.80;;
77591;SDS011;66891;46.884;17.436;2023-03-01T02:15:10;17.85;;;7.88;;
77591;SDS011;66891;46.884;17.436;2023-03-01T02:17:37;20.77;;;8.15;;
77591;SDS011;66891;46.884;17.436;2023-03-01T02:20:07;18.87;;;7.83;;
77591;SDS011;66891;46.884;17.436;2023-03-01T02:22:42;20.27;;;8.45;;
77591;SDS011;66891;46.884;17.436;2023-03-01T02:25:12;21.23;;;8.48;;
77591;SDS011;66891;46.884;17.436;2023-03-01T02:27:49;20.52;;;8.63;;
77591;SDS011;66891;46.884;17.436;2023-03-01T02:30:20;19.45;;;8.75;;
77591;SDS011;66891;46.884;17.436;2023-03-01T02:32:48;21.60;;;8.60;;
77591;SDS011;66891;46.884;17.436;2023-03-01T02:35:16;22.67;;;8.85;;
77591;SDS011;66891;46.884;17.436;2023-03-01T02:37:44;21.02;;;8.48;;
77591;SDS011;66891;46.884;17.436;2023-03-01T02:40:14;21.27;;;9.15;;
77591;SDS011;66891;46.884;17.436;2023-03-01T02:42:45;21.98;;;9.13;;
77591;SDS011;66891;46.884;17.436;2023-03-01T02:45:13;21.80;;;8.63;;
77591;SDS011;66891;46.884;17.436;2023-03-01T02:47:42;23.45;;;9.00;;
77591;SDS011;66891;46.884;17.436;2023-03-01T02:50:12;21.20;;;9.23;;
77591;SDS011;66891;46.884;17.436;2023-03-01T02:52:44;21.88;;;8.60;;
77591;SDS011;66891;46.884;17.436;2023-03-01T02:55:13;23.08;;;8.52;;
77591;SDS011;66891;46.884;17.436;2023-03-01T02:57:41;20.33;;;7.73;;
77591;SDS011;66891;46.884;17.436;2023-03-01T03:00:10;22.13;;;8.27;;
77591;SDS011;66891;46.884;17.436;2023-03-01T03:02:38;19.85;;;8.13;;
77591;SDS011;66891;46.884;17.436;2023-03-01T03:05:09;21.50;;;8.63;;
77591;SDS011;66891;46.884;17.436;2023-03-01T03:07:37;18.90;;;7.85;;
77591;SDS011;66891;46.884;17.436;2023-03-01T03:10:06;19.97;;;8.27;;
77591;SDS011;66891;46.884;17.436;2023-03-01T03:12:39;20.60;;;8.80;;
77591;SDS011;66891;46.884;17.436;2023-03-01T03:15:07;20.08;;;8.60;;
77591;SDS011;66891;46.884;17.436;2023-03-01T03:17:35;23.33;;;8.65;;
77591;SDS011;66891;46.884;17.436;2023-03-01T03:20:04;21.20;;;7.80;;
77591;SDS011;66891;46.884;17.436;2023-03-01T03:22:35;20.40;;;7.50;;
77591;SDS011;66891;46.884;17.436;2023-03-01T03:25:02;22.27;;;7.93;;
77591;SDS011;66891;46.884;17.436;2023-03-01T03:27:30;20.58;;;8.05;;
77591;SDS011;66891;46.884;17.436;2023-03-01T03:30:01;22.20;;;9.05;;
77591;SDS011;66891;46.884;17.436;2023-03-01T03:32:29;22.98;;;7.85;;
77591;SDS011;66891;46.884;17.436;2023-03-01T03:34:57;19.77;;;8.00;;
77591;SDS011;66891;46.884;17.436;2023-03-01T03:37:23;22.73;;;8.05;;
77591;SDS011;66891;46.884;17.436;2023-03-01T03:40:11;22.88;;;6.95;;
77591;SDS011;66891;46.884;17.436;2023-03-01T03:42:42;20.55;;;7.93;;
77591;SDS011;66891;46.884;17.436;2023-03-01T03:45:09;20.50;;;6.88;;
77591;SDS011;66891;46.884;17.436;2023-03-01T03:47:36;19.83;;;7.10;;
77591;SDS011;66891;46.884;17.436;2023-03-01T03:50:05;22.80;;;7.55;;
77591;SDS011;66891;46.884;17.436;2023-03-01T03:52:34;19.20;;;7.60;;
77591;SDS011;66891;46.884;17.436;2023-03-01T03:55:01;19.08;;;7.40;;
77591;SDS011;66891;46.884;17.436;2023-03-01T03:57:29;17.92;;;7.60;;
77591;SDS011;66891;46.884;17.436;2023-03-01T03:59:59;21.53;;;7.27;;
77591;SDS011;66891;46.884;17.436;2023-03-01T04:02:27;19.48;;;7.10;;
77591;SDS011;66891;46.884;17.436;2023-03-01T04:04:54;19.90;;;7.70;;
77591;SDS011;66891;46.884;17.436;2023-03-01T04:07:21;22.25;;;8.27;;
77591;SDS011;66891;46.884;17.436;2023-03-01T04:09:49;19.50;;;7.38;;
77591;SDS011;66891;46.884;17.436;2023-03-01T04:12:16;21.37;;;7.57;;
77591;SDS011;66891;46.884;17.436;2023-03-01T04:14:48;21.77;;;8.32;;
77591;SDS011;66891;46.884;17.436;2023-03-01T04:17:15;22.80;;;7.90;;
77591;SDS011;66891;46.884;17.436;2023-03-01T04:19:43;18.45;;;7.50;;
77591;SDS011;66891;46.884;17.436;2023-03-01T04:22:10;19.98;;;7.63;;
77591;SDS011;66891;46.884;17.436;2023-03-01T04:24:37;19.00;;;7.23;;
77591;SDS011;66891;46.884;17.436;2023-03-01T04:27:04;20.70;;;7.40;;
77591;SDS011;66891;46.884;17.436;2023-03-01T04:29:31;20.98;;;8.13;;
77591;SDS011;66891;46.884;17.436;2023-03-01T04:32:00;18.52;;;7.65;;
77591;SDS011;66891;46.884;17.436;2023-03-01T04:34:27;18.48;;;7.50;;
77591;SDS011;66891;46.884;17.436;2023-03-01T04:36:55;20.30;;;7.70;;
77591;SDS011;66891;46.884;17.436;2023-03-01T04:39:22;21.52;;;7.45;;
77591;SDS011;66891;46.884;17.436;2023-03-01T04:41:49;21.42;;;7.70;;
77591;SDS011;66891;46.884;17.436;2023-03-01T04:44:16;19.88;;;7.85;;
77591;SDS011;66891;46.884;17.436;2023-03-01T04:46:43;18.83;;;7.65;;
77591;SDS011;66891;46.884;17.436;2023-03-01T04:49:11;21.83;;;7.90;;
77591;SDS011;66891;46.884;17.436;2023-03-01T04:51:39;22.75;;;8.57;;
77591;SDS011;66891;46.884;17.436;2023-03-01T04:54:06;22.10;;;8.88;;
77591;SDS011;66891;46.884;17.436;2023-03-01T04:56:35;21.13;;;8.15;;
77591;SDS011;66891;46.884;17.436;2023-03-01T04:59:02;21.65;;;8.98;;
77591;SDS011;66891;46.884;17.436;2023-03-01T05:01:32;23.07;;;8.30;;
77591;SDS011;66891;46.884;17.436;2023-03-01T05:04:00;22.30;;;9.10;;
77591;SDS011;66891;46.884;17.436;2023-03-01T05:06:31;22.40;;;9.00;;
77591;SDS011;66891;46.884;17.436;2023-03-01T05:08:58;22.05;;;8.82;;
77591;SDS011;66891;46.884;17.436;2023-03-01T05:11:26;23.08;;;8.95;;
77591;SDS011;66891;46.884;17.436;2023-03-01T05:13:54;24.63;;;9.37;;
77591;SDS011;66891;46.884;17.436;2023-03-01T05:16:22;21.33;;;9.15;;
77591;SDS011;66891;46.884;17.436;2023-03-01T05:18:49;26.63;;;9.25;;
77591;SDS011;66891;46.884;17.436;2023-03-01T05:21:17;25.98;;;9.75;;
77591;SDS011;66891;46.884;17.436;2023-03-01T05:23:45;22.45;;;9.77;;
77591;SDS011;66891;46.884;17.436;2023-03-01T05:26:13;27.47;;;10.27;;
77591;SDS011;66891;46.884;17.436;2023-03-01T05:28:54;23.63;;;10.23;;
77591;SDS011;66891;46.884;17.436;2023-03-01T05:31:26;21.33;;;9.25;;
77591;SDS011;66891;46.884;17.436;2023-03-01T05:33:53;25.35;;;9.57;;
77591;SDS011;66891;46.884;17.436;2023-03-01T05:36:20;24.00;;;9.73;;
77591;SDS011;66891;46.884;17.436;2023-03-01T05:38:49;26.10;;;9.90;;
77591;SDS011;66891;46.884;17.436;2023-03-01T05:41:16;25.63;;;9.02;;
77591;SDS011;66891;46.884;17.436;2023-03-01T05:43:43;26.90;;;10.52;;
77591;SDS011;66891;46.884;17.436;2023-03-01T05:46:11;26.98;;;10.50;;
77591;SDS011;66891;46.884;17.436;2023-03-01T05:48:40;26.40;;;10.63;;
77591;SDS011;66891;46.884;17.436;2023-03-01T05:51:07;25.90;;;10.05;;
77591;SDS011;66891;46.884;17.436;2023-03-01T05:53:34;29.10;;;10.55;;
77591;SDS011;66891;46.884;17.436;2023-03-01T05:56:04;28.80;;;10.13;;
77591;SDS011;66891;46.884;17.436;2023-03-01T05:58:31;27.52;;;9.73;;
77591;SDS011;66891;46.884;17.436;2023-03-01T06:00:58;27.58;;;10.70;;
77591;SDS011;66891;46.884;17.436;2023-03-01T06:03:25;28.58;;;10.43;;
77591;SDS011;66891;46.884;17.436;2023-03-01T06:05:55;24.80;;;9.80;;
77591;SDS011;66891;46.884;17.436;2023-03-01T06:08:22;25.35;;;10.32;;
77591;SDS011;66891;46.884;17.436;2023-03-01T06:10:50;27.60;;;10.52;;
77591;SDS011;66891;46.884;17.436;2023-03-01T06:13:19;25.10;;;10.65;;
77591;SDS011;66891;46.884;17.436;2023-03-01T06:15:46;26.87;;;11.37;;
77591;SDS011;66891;46.884;17.436;2023-03-01T06:18:13;31.70;;;11.57;;
77591;SDS011;66891;46.884;17.436;2023-03-01T06:20:41;30.33;;;12.45;;
77591;SDS011;66891;46.884;17.436;2023-03-01T06:23:08;29.92;;;12.63;;
77591;SDS011;66891;46.884;17.436;2023-03-01T06:25:36;29.33;;;12.35;;
77591;SDS011;66891;46.884;17.436;2023-03-01T06:28:03;33.40;;;13.03;;
77591;SDS011;66891;46.884;17.436;2023-03-01T06:30:33;29.42;;;12.13;;
77591;SDS011;66891;46.884;17.436;2023-03-01T06:33:01;27.15;;;11.70;;
77591;SDS011;66891;46.884;17.436;2023-03-01T06:35:29;29.88;;;11.63;;
77591;SDS011;66891;46.884;17.436;2023-03-01T06:37:58;31.40;;;12.65;;
77591;SDS011;66891;46.884;17.436;2023-03-01T06:40:26;27.80;;;11.63;;
77591;SDS011;66891;46.884;17.436;2023-03-01T06:42:53;28.65;;;11.07;;
77591;SDS011;66891;46.884;17.436;2023-03-01T06:45:31;31.27;;;12.73;;
77591;SDS011;66891;46.884;17.436;2023-03-01T06:48:03;37.28;;;15.00;;
77591;SDS011;66891;46.884;17.436;2023-03-01T06:50:31;37.42;;;15.98;;
77591;SDS011;66891;46.884;17.436;2023-03-01T06:52:58;39.60;;;16.50;;
77591;SDS011;66891;46.884;17.436;2023-03-01T06:55:25;35.72;;;13.48;;
77591;SDS011;66891;46.884;17.436;2023-03-01T06:57:56;32.78;;;13.55;;
77591;SDS011;66891;46.884;17.436;2023-03-01T07:00:24;30.08;;;12.63;;
77591;SDS011;66891;46.884;17.436;2023-03-01T07:02:51;30.75;;;12.30;;
77591;SDS011;66891;46.884;17.436;2023-03-01T07:05:20;31.43;;;12.20;;
77591;SDS011;66891;46.884;17.436;2023-03-01T07:07:47;32.58;;;12.10;;
77591;SDS011;66891;46.884;17.436;2023-03-01T07:10:15;31.02;;;12.00;;
77591;SDS011;66891;46.884;17.436;2023-03-01T07:12:43;28.35;;;10.73;;
77591;SDS011;66891;46.884;17.436;2023-03-01T07:15:11;31.30;;;12.43;;
77591;SDS011;66891;46.884;17.436;2023-03-01T07:17:38;32.13;;;11.10;;
77591;SDS011;66891;46.884;17.436;2023-03-01T07:20:05;35.97;;;13.10;;
77591;SDS011;66891;46.884;17.436;2023-03-01T07:22:34;32.42;;;12.52;;
77591;SDS011;66891;46.884;17.436;2023-03-01T07:25:01;32.60;;;12.75;;
77591;SDS011;66891;46.884;17.436;2023-03-01T07:27:28;54.38;;;20.10;;
77591;SDS011;66891;46.884;17.436;2023-03-01T07:29:57;34.60;;;13.23;;
77591;SDS011;66891;46.884;17.436;2023-03-01T07:32:24;38.83;;;15.48;;
77591;SDS011;66891;46.884;17.436;2023-03-01T07:34:51;46.63;;;18.58;;
77591;SDS011;66891;46.884;17.436;2023-03-01T07:37:18;39.47;;;14.82;;
77591;SDS011;66891;46.884;17.436;2023-03-01T07:39:48;36.60;;;13.20;;
77591;SDS011;66891;46.884;17.436;2023-03-01T07:42:15;29.97;;;12.30;;
77591;SDS011;66891;46.884;17.436;2023-03-01T07:44:42;33.95;;;11.65;;
77591;SDS011;66891;46.884;17.436;2023-03-01T07:47:09;30.05;;;11.05;;
77591;SDS011;66891;46.884;17.436;2023-03-01T07:49:46;35.08;;;13.07;;
77591;SDS011;66891;46.884;17.436;2023-03-01T07:52:17;32.70;;;13.20;;
77591;SDS011;66891;46.884;17.436;2023-03-01T07:54:50;36.78;;;13.15;;
77591;SDS011;66891;46.884;17.436;2023-03-01T07:57:18;35.55;;;13.02;;
77591;SDS011;66891;46.884;17.436;2023-03-01T07:59:46;36.58;;;12.48;;
77591;SDS011;66891;46.884;17.436;2023-03-01T08:02:15;34.13;;;13.70;;
77591;SDS011;66891;46.884;17.436;2023-03-01T08:04:42;33.13;;;12.77;;
77591;SDS011;66891;46.884;17.436;2023-03-01T08:07:09;34.90;;;14.10;;
77591;SDS011;66891;46.884;17.436;2023-03-01T08:09:37;31.60;;;12.57;;
77591;SDS011;66891;46.884;17.436;2023-03-01T08:12:06;33.90;;;13.02;;
77591;SDS011;66891;46.884;17.436;2023-03-01T08:14:33;29.98;;;12.00;;
77591;SDS011;66891;46.884;17.436;2023-03-01T08:17:00;32.03;;;12.70;;
77591;SDS011;66891;46.884;17.436;2023-03-01T08:19:30;32.37;;;11.93;;
77591;SDS011;66891;46.884;17.436;2023-03-01T08:21:58;30.25;;;11.35;;
77591;SDS011;66891;46.884;17.436;2023-03-01T08:24:26;31.73;;;11.82;;
77591;SDS011;66891;46.884;17.436;2023-03-01T08:26:53;30.50;;;11.65;;
77591;SDS011;66891;46.884;17.436;2023-03-01T08:29:25;31.70;;;11.63;;
77591;SDS011;66891;46.884;17.436;2023-03-01T08:31:53;33.57;;;11.83;;
77591;SDS011;66891;46.884;17.436;2023-03-01T08:34:20;28.98;;;11.27;;
77591;SDS011;66891;46.884;17.436;2023-03-01T08:36:48;34.00;;;12.25;;
77591;SDS011;66891;46.884;17.436;2023-03-01T08:39:16;34.97;;;12.18;;
77591;SDS011;66891;46.884;17.436;2023-03-01T08:41:45;35.00;;;11.85;;
77591;SDS011;66891;46.884;17.436;2023-03-01T08:44:14;31.93;;;12.40;;
77591;SDS011;66891;46.884;17.436;2023-03-01T08:46:44;36.70;;;13.25;;
77591;SDS011;66891;46.884;17.436;2023-03-01T08:49:13;38.67;;;13.77;;
77591;SDS011;66891;46.884;17.436;2023-03-01T08:51:40;35.90;;;13.80;;
77591;SDS011;66891;46.884;17.436;2023-03-01T08:54:09;36.08;;;13.82;;
77591;SDS011;66891;46.884;17.436;2023-03-01T08:56:37;42.47;;;14.38;;
77591;SDS011;66891;46.884;17.436;2023-03-01T08:59:05;37.10;;;14.07;;
77591;SDS011;66891;46.884;17.436;2023-03-01T09:01:34;35.63;;;13.65;;
77591;SDS011;66891;46.884;17.436;2023-03-01T09:04:02;39.45;;;17.33;;
77591;SDS011;66891;46.884;17.436;2023-03-01T09:06:30;34.08;;;13.73;;
77591;SDS011;66891;46.884;17.436;2023-03-01T09:08:58;39.10;;;14.48;;
77591;SDS011;66891;46.884;17.436;2023-03-01T09:11:27;37.95;;;13.77;;
77591;SDS011;66891;46.884;17.436;2023-03-01T09:13:57;36.88;;;14.90;;
77591;SDS011;66891;46.884;17.436;2023-03-01T09:16:24;37.97;;;13.93;;
77591;SDS011;66891;46.884;17.436;2023-03-01T09:18:52;34.38;;;12.90;;
77591;SDS011;66891;46.884;17.436;2023-03-01T09:21:21;34.03;;;13.10;;
77591;SDS011;66891;46.884;17.436;2023-03-01T09:24:05;33.78;;;12.20;;
77591;SDS011;66891;46.884;17.436;2023-03-01T09:26:32;39.67;;;15.10;;
77591;SDS011;66891;46.884;17.436;2023-03-01T09:29:00;42.22;;;17.00;;
77591;SDS011;66891;46.884;17.436;2023-03-01T09:31:27;39.42;;;16.20;;
77591;SDS011;66891;46.884;17.436;2023-03-01T09:33:54;35.83;;;14.45;;
77591;SDS011;66891;46.884;17.436;2023-03-01T09:36:23;34.30;;;13.73;;
77591;SDS011;66891;46.884;17.436;2023-03-01T09:38:58;29.42;;;12.38;;
77591;SDS011;66891;46.884;17.436;2023-03-01T09:41:33;40.35;;;16.05;;
77591;SDS011;66891;46.884;17.436;2023-03-01T09:44:09;29.92;;;12.73;;
77591;SDS011;66891;46.884;17.436;2023-03-01T09:46:40;35.07;;;14.60;;
77591;SDS011;66891;46.884;17.436;2023-03-01T09:49:10;33.88;;;14.68;;
77591;SDS011;66891;46.884;17.436;2023-03-01T09:51:40;36.83;;;15.95;;
77591;SDS011;66891;46.884;17.436;2023-03-01T09:54:08;32.47;;;13.43;;
77591;SDS011;66891;46.884;17.436;2023-03-01T09:56:38;35.78;;;13.50;;
77591;SDS011;66891;46.884;17.436;2023-03-01T09:59:10;30.38;;;13.25;;
77591;SDS011;66891;46.884;17.436;2023-03-01T10:01:38;39.58;;;16.45;;
77591;SDS011;66891;46.884;17.436;2023-03-01T10:04:12;37.78;;;17.27;;
77591;SDS011;66891;46.884;17.436;2023-03-01T10:06:49;31.15;;;13.52;;
77591;SDS011;66891;46.884;17.436;2023-03-01T10:09:22;31.58;;;12.77;;
77591;SDS011;66891;46.884;17.436;2023-03-01T10:11:50;31.67;;;11.27;;
77591;SDS011;66891;46.884;17.436;2023-03-01T10:14:22;29.10;;;11.68;;
77591;SDS011;66891;46.884;17.436;2023-03-01T10:16:51;29.48;;;12.98;;
77591;SDS011;66891;46.884;17.436;2023-03-01T10:19:23;24.70;;;9.38;;
77591;SDS011;66891;46.884;17.436;2023-03-01T10:21:53;25.30;;;9.60;;
77591;SDS011;66891;46.884;17.436;2023-03-01T10:24:20;26.40;;;10.45;;
77591;SDS011;66891;46.884;17.436;2023-03-01T10:26:50;27.30;;;10.60;;
77591;SDS011;66891;46.884;17.436;2023-03-01T10:29:21;27.08;;;10.35;;
77591;SDS011;66891;46.884;17.436;2023-03-01T10:31:54;27.05;;;9.73;;
77591;SDS011;66891;46.884;17.436;2023-03-01T10:34:22;26.85;;;10.73;;
77591;SDS011;66891;46.884;17.436;2023-03-01T10:36:56;25.13;;;10.30;;
77591;SDS011;66891;46.884;17.436;2023-03-01T10:39:25;29.10;;;12.02;;
77591;SDS011;66891;46.884;17.436;2023-03-01T10:41:56;37.40;;;16.67;;
77591;SDS011;66891;46.884;17.436;2023-03-01T10:44:37;35.70;;;15.27;;
77591;SDS011;66891;46.884;17.436;2023-03-01T10:47:04;31.05;;;12.23;;
77591;SDS011;66891;46.884;17.436;2023-03-01T10:49:31;26.63;;;11.50;;
77591;SDS011;66891;46.884;17.436;2023-03-01T10:52:10;23.38;;;10.73;;
77591;SDS011;66891;46.884;17.436;2023-03-01T10:54:38;27.70;;;11.93;;
77591;SDS011;66891;46.884;17.436;2023-03-01T10:57:10;27.90;;;12.05;;
77591;SDS011;66891;46.884;17.436;2023-03-01T11:00:01;28.67;;;12.40;;
77591;SDS011;66891;46.884;17.436;2023-03-01T11:02:32;26.63;;;11.10;;
77591;SDS011;66891;46.884;17.436;2023-03-01T11:05:15;28.55;;;11.98;;
77591;SDS011;66891;46.884;17.436;2023-03-01T11:07:48;27.23;;;10.70;;
77591;SDS011;66891;46.884;17.436;2023-03-01T11:10:17;27.73;;;11.07;;
77591;SDS011;66891;46.884;17.436;2023-03-01T11:12:45;28.98;;;11.52;;
77591;SDS011;66891;46.884;17.436;2023-03-01T11:15:19;28.53;;;12.33;;
77591;SDS011;66891;46.884;17.436;2023-03-01T11:17:47;25.60;;;11.25;;
77591;SDS011;66891;46.884;17.436;2023-03-01T11:20:27;27.42;;;10.80;;
77591;SDS011;66891;46.884;17.436;2023-03-01T11:22:58;23.42;;;10.00;;
77591;SDS011;66891;46.884;17.436;2023-03-01T11:25:27;25.50;;;10.85;;
77591;SDS011;66891;46.884;17.436;2023-03-01T11:27:56;26.73;;;11.03;;
77591;SDS011;66891;46.884;17.436;2023-03-01T11:30:26;28.42;;;11.57;;
77591;SDS011;66891;46.884;17.436;2023-03-01T11:32:58;25.05;;;10.93;;
77591;SDS011;66891;46.884;17.436;2023-03-01T11:35:28;25.52;;;11.10;;
77591;SDS011;66891;46.884;17.436;2023-03-01T11:38:02;27.50;;;10.88;;
77591;SDS011;66891;46.884;17.436;2023-03-01T11:40:33;23.23;;;10.17;;
77591;SDS011;66891;46.884;17.436;2023-03-01T11:43:05;28.00;;;10.95;;
77591;SDS011;66891;46.884;17.436;2023-03-01T11:45:38;25.95;;;10.35;;
77591;SDS011;66891;46.884;17.436;2023-03-01T11:48:11;26.40;;;10.15;;
77591;SDS011;66891;46.884;17.436;2023-03-01T11:50:44;30.17;;;12.38;;
77591;SDS011;66891;46.884;17.436;2023-03-01T11:53:19;28.07;;;12.30;;
77591;SDS011;66891;46.884;17.436;2023-03-01T11:56:00;30.25;;;12.57;;
77591;SDS011;66891;46.884;17.436;2023-03-01T12:01:25;25.98;;;10.85;;
77591;SDS011;66891;46.884;17.436;2023-03-01T12:04:00;29.00;;;13.07;;
77591;SDS011;66891;46.884;17.436;2023-03-01T12:06:46;32.00;;;12.07;;
77591;SDS011;66891;46.884;17.436;2023-03-01T12:12:15;32.70;;;12.82;;
77591;SDS011;66891;46.884;17.436;2023-03-01T12:14:48;30.40;;;13.52;;
77591;SDS011;66891;46.884;17.436;2023-03-01T12:17:23;30.20;;;11.43;;
77591;SDS011;66891;46.884;17.436;2023-03-01T12:19:59;27.80;;;11.80;;
77591;SDS011;66891;46.884;17.436;2023-03-01T12:22:30;25.15;;;10.00;;
77591;SDS011;66891;46.884;17.436;2023-03-01T12:27:45;32.25;;;13.15;;
77591;SDS011;66891;46.884;17.436;2023-03-01T12:30:21;28.88;;;11.40;;
77591;SDS011;66891;46.884;17.436;2023-03-01T12:32:54;28.80;;;12.67;;
77591;SDS011;66891;46.884;17.436;2023-03-01T12:35:32;30.85;;;12.32;;
77591;SDS011;66891;46.884;17.436;2023-03-01T12:38:06;29.95;;;11.57;;
77591;SDS011;66891;46.884;17.436;2023-03-01T12:40:53;24.90;;;10.60;;
77591;SDS011;66891;46.884;17.436;2023-03-01T12:43:28;27.77;;;9.18;;
77591;SDS011;66891;46.884;17.436;2023-03-01T12:46:10;25.50;;;10.83;;
77591;SDS011;66891;46.884;17.436;2023-03-01T12:48:43;29.10;;;10.63;;
77591;SDS011;66891;46.884;17.436;2023-03-01T12:51:14;21.95;;;9.50;;
77591;SDS011;66891;46.884;17.436;2023-03-01T12:53:42;26.30;;;10.25;;
77591;SDS011;66891;46.884;17.436;2023-03-01T12:56:11;29.45;;;11.05;;
77591;SDS011;66891;46.884;17.436;2023-03-01T12:58:41;28.57;;;12.17;;
77591;SDS011;66891;46.884;17.436;2023-03-01T13:01:21;32.17;;;13.13;;
77591;SDS011;66891;46.884;17.436;2023-03-01T13:03:59;29.23;;;11.88;;
77591;SDS011;66891;46.884;17.436;2023-03-01T13:06:31;38.42;;;13.80;;
77591;SDS011;66891;46.884;17.436;2023-03-01T13:09:11;37.15;;;15.05;;
77591;SDS011;66891;46.884;17.436;2023-03-01T13:11:41;28.13;;;12.37;;
77591;SDS011;66891;46.884;17.436;2023-03-01T13:16:55;33.25;;;14.05;;
77591;SDS011;66891;46.884;17.436;2023-03-01T13:19:23;26.95;;;12.55;;
77591;SDS011;66891;46.884;17.436;2023-03-01T13:21:51;29.42;;;13.60;;
77591;SDS011;66891;46.884;17.436;2023-03-01T13:24:24;30.47;;;13.03;;
77591;SDS011;66891;46.884;17.436;2023-03-01T13:27:11;34.72;;;13.80;;
77591;SDS011;66891;46.884;17.436;2023-03-01T13:29:46;33.15;;;14.25;;
77591;SDS011;66891;46.884;17.436;2023-03-01T13:32:22;34.30;;;15.10;;
77591;SDS011;66891;46.884;17.436;2023-03-01T13:35:00;31.90;;;13.27;;
77591;SDS011;66891;46.884;17.436;2023-03-01T13:37:29;28.97;;;12.73;;
77591;SDS011;66891;46.884;17.436;2023-03-01T13:40:01;32.28;;;13.48;;
77591;SDS011;66891;46.884;17.436;2023-03-01T13:42:42;28.50;;;11.82;;
77591;SDS011;66891;46.884;17.436;2023-03-01T13:45:22;28.27;;;12.75;;
77591;SDS011;66891;46.884;17.436;2023-03-01T13:47:56;34.22;;;13.00;;
77591;SDS011;66891;46.884;17.436;2023-03-01T13:50:25;35.30;;;14.40;;
77591;SDS011;66891;46.884;17.436;2023-03-01T13:52:55;29.75;;;13.32;;
77591;SDS011;66891;46.884;17.436;2023-03-01T13:55:25;29.42;;;12.32;;
77591;SDS011;66891;46.884;17.436;2023-03-01T13:57:54;31.38;;;12.63;;
77591;SDS011;66891;46.884;17.436;2023-03-01T14:00:26;36.35;;;12.82;;
77591;SDS011;66891;46.884;17.436;2023-03-01T14:03:04;28.77;;;11.87;;
77591;SDS011;66891;46.884;17.436;2023-03-01T14:05:32;28.73;;;11.68;;
77591;SDS011;66891;46.884;17.436;2023-03-01T14:07:59;37.10;;;13.88;;
77591;SDS011;66891;46.884;17.436;2023-03-01T14:10:29;33.13;;;14.32;;
77591;SDS011;66891;46.884;17.436;2023-03-01T14:13:00;30.00;;;11.77;;
77591;SDS011;66891;46.884;17.436;2023-03-01T14:15:42;30.23;;;13.53;;
77591;SDS011;66891;46.884;17.436;2023-03-01T14:18:14;37.60;;;17.02;;
77591;SDS011;66891;46.884;17.436;2023-03-01T14:20:43;37.45;;;16.40;;
77591;SDS011;66891;46.884;17.436;2023-03-01T14:23:18;42.92;;;18.30;;
77591;SDS011;66891;46.884;17.436;2023-03-01T14:25:46;41.58;;;17.95;;
77591;SDS011;66891;46.884;17.436;2023-03-01T14:28:14;40.77;;;16.77;;
77591;SDS011;66891;46.884;17.436;2023-03-01T14:30:45;45.03;;;19.40;;
77591;SDS011;66891;46.884;17.436;2023-03-01T14:33:21;48.30;;;20.23;;
77591;SDS011;66891;46.884;17.436;2023-03-01T14:35:52;42.13;;;19.75;;
77591;SDS011;66891;46.884;17.436;2023-03-01T14:38:20;39.17;;;16.48;;
77591;SDS011;66891;46.884;17.436;2023-03-01T14:40:47;38.57;;;17.07;;
77591;SDS011;66891;46.884;17.436;2023-03-01T14:43:16;34.38;;;16.60;;